sensor_id;sensor_type;location;lat;lon;timestamp;temperature;humidity
37678;DHT22;23517;50.390;8.616;2023-03-01T00:01:42;-0.40;44.00
37678;DHT22;23517;50.390;8.616;2023-03-01T00:04:09;-0.40;44.00
37678;DHT22;23517;50.390;8.616;2023-03-01T00:06:36;-0.40;43.80
37678;DHT22;23517;50.390;8.616;2023-03-01T00:09:04;-0.40;43.90
37678;DHT22;23517;50.390;8.616;2023-03-01T00:11:32;-0.40;44.00
37678;DHT22;23517;50.390;8.616;2023-03-01T00:14:00;-0.40;43.90
37678;DHT22;23517;50.390;8.616;2023-03-01T00:16:33;-0.40;43.90
37678;DHT22;23517;50.390;8.616;2023-03-01T00:19:06;-0.40;43.90
37678;DHT22;23517;50.390;8.616;2023-03-01T00:21:33;-0.30;43.60
37678;DHT22;23517;50.390;8.616;2023-03-01T00:24:02;-0.30;43.60
37678;DHT22;23517;50.390;8.616;2023-03-01T00:26:29;-0.40;43.70
37678;DHT22;23517;50.390;8.616;2023-03-01T00:28:58;-0.40;43.90
37678;DHT22;23517;50.390;8.616;2023-03-01T00:31:27;-0.40;44.00
37678;DHT22;23517;50.390;8.616;2023-03-01T00:34:00;-0.40;44.00
37678;DHT22;23517;50.390;8.616;2023-03-01T00:36:31;-0.50;44.10
37678;DHT22;23517;50.390;8.616;2023-03-01T00:39:01;-0.50;44.10
37678;DHT22;23517;50.390;8.616;2023-03-01T00:41:28;-0.50;44.20
37678;DHT22;23517;50.390;8.616;2023-03-01T00:43:55;-0.50;44.60
37678;DHT22;23517;50.390;8.616;2023-03-01T00:46:25;-0.50;44.40
37678;DHT22;23517;50.390;8.616;2023-03-01T00:48:54;-0.50;44.60
37678;DHT22;23517;50.390;8.616;2023-03-01T00:51:26;-0.50;44.60
37678;DHT22;23517;50.390;8.616;2023-03-01T00:53:55;-0.60;44.40
37678;DHT22;23517;50.390;8.616;2023-03-01T00:56:26;-0.60;44.70
37678;DHT22;23517;50.390;8.616;2023-03-01T00:58:53;-0.60;44.80
37678;DHT22;23517;50.390;8.616;2023-03-01T01:01:22;-0.60;44.90
37678;DHT22;23517;50.390;8.616;2023-03-01T01:03:56;-0.70;45.40
37678;DHT22;23517;50.390;8.616;2023-03-01T01:06:27;-0.70;45.60
37678;DHT22;23517;50.390;8.616;2023-03-01T01:08:57;-0.70;45.60
37678;DHT22;23517;50.390;8.616;2023-03-01T01:11:26;-0.70;45.50
37678;DHT22;23517;50.390;8.616;2023-03-01T01:13:54;-0.70;45.60
37678;DHT22;23517;50.390;8.616;2023-03-01T01:16:24;-0.70;45.80
37678;DHT22;23517;50.390;8.616;2023-03-01T01:18:52;-0.70;45.90
37678;DHT22;23517;50.390;8.616;2023-03-01T01:21:21;-0.70;46.00
37678;DHT22;23517;50.390;8.616;2023-03-01T01:23:49;-0.80;46.40
37678;DHT22;23517;50.390;8.616;2023-03-01T01:26:23;-0.80;45.80
37678;DHT22;23517;50.390;8.616;2023-03-01T01:28:52;-0.80;46.10
37678;DHT22;23517;50.390;8.616;2023-03-01T01:31:19;-0.80;46.50
37678;DHT22;23517;50.390;8.616;2023-03-01T01:33:46;-0.90;46.40
37678;DHT22;23517;50.390;8.616;2023-03-01T01:36:13;-0.90;46.60
37678;DHT22;23517;50.390;8.616;2023-03-01T01:38:40;-1.00;46.80
37678;DHT22;23517;50.390;8.616;2023-03-01T01:41:09;-1.00;47.20
37678;DHT22;23517;50.390;8.616;2023-03-01T01:43:41;-1.00;47.40
37678;DHT22;23517;50.390;8.616;2023-03-01T01:46:29;-0.90;47.00
37678;DHT22;23517;50.390;8.616;2023-03-01T01:49:00;-0.90;46.60
37678;DHT22;23517;50.390;8.616;2023-03-01T01:51:37;-0.80;46.40
37678;DHT22;23517;50.390;8.616;2023-03-01T01:54:11;-0.80;46.50
37678;DHT22;23517;50.390;8.616;2023-03-01T01:56:44;-0.80;46.40
37678;DHT22;23517;50.390;8.616;2023-03-01T01:59:15;-0.80;46.30
37678;DHT22;23517;50.390;8.616;2023-03-01T02:01:42;-0.70;46.30
37678;DHT22;23517;50.390;8.616;2023-03-01T02:04:10;-0.70;46.10
37678;DHT22;23517;50.390;8.616;2023-03-01T02:06:41;-0.70;46.00
37678;DHT22;23517;50.390;8.616;2023-03-01T02:09:14;-0.70;45.80
37678;DHT22;23517;50.390;8.616;2023-03-01T02:11:43;-0.70;45.80
37678;DHT22;23517;50.390;8.616;2023-03-01T02:14:10;-0.70;45.80
37678;DHT22;23517;50.390;8.616;2023-03-01T02:16:37;-0.70;45.90
37678;DHT22;23517;50.390;8.616;2023-03-01T02:19:05;-0.70;46.10
37678;DHT22;23517;50.390;8.616;2023-03-01T02:21:47;-0.80;46.00
37678;DHT22;23517;50.390;8.616;2023-03-01T02:24:21;-0.80;46.00
37678;DHT22;23517;50.390;8.616;2023-03-01T02:27:01;-0.80;45.90
37678;DHT22;23517;50.390;8.616;2023-03-01T02:29:28;-0.80;46.50
37678;DHT22;23517;50.390;8.616;2023-03-01T02:31:58;-0.80;46.00
37678;DHT22;23517;50.390;8.616;2023-03-01T02:34:26;-0.80;45.80
37678;DHT22;23517;50.390;8.616;2023-03-01T02:36:56;-0.80;45.90
37678;DHT22;23517;50.390;8.616;2023-03-01T02:39:33;-0.80;45.90
37678;DHT22;23517;50.390;8.616;2023-03-01T02:42:04;-0.80;45.90
37678;DHT22;23517;50.390;8.616;2023-03-01T02:44:33;-0.80;46.10
37678;DHT22;23517;50.390;8.616;2023-03-01T02:47:02;-0.90;46.20
37678;DHT22;23517;50.390;8.616;2023-03-01T02:49:32;-0.90;46.20
37678;DHT22;23517;50.390;8.616;2023-03-01T02:52:22;-0.90;46.40
37678;DHT22;23517;50.390;8.616;2023-03-01T02:55:09;-0.90;46.60
37678;DHT22;23517;50.390;8.616;2023-03-01T02:57:40;-0.90;46.10
37678;DHT22;23517;50.390;8.616;2023-03-01T03:00:18;-0.90;45.90
37678;DHT22;23517;50.390;8.616;2023-03-01T03:02:49;-0.80;45.70
37678;DHT22;23517;50.390;8.616;2023-03-01T03:05:21;-0.90;45.90
37678;DHT22;23517;50.390;8.616;2023-03-01T03:07:54;-0.90;45.80
37678;DHT22;23517;50.390;8.616;2023-03-01T03:10:25;-0.90;45.90
37678;DHT22;23517;50.390;8.616;2023-03-01T03:13:01;-0.90;46.10
37678;DHT22;23517;50.390;8.616;2023-03-01T03:15:32;-1.00;46.10
37678;DHT22;23517;50.390;8.616;2023-03-01T03:18:03;-0.90;45.80
37678;DHT22;23517;50.390;8.616;2023-03-01T03:20:32;-0.90;45.80
37678;DHT22;23517;50.390;8.616;2023-03-01T03:22:59;-0.90;45.90
37678;DHT22;23517;50.390;8.616;2023-03-01T03:25:28;-0.90;46.10
37678;DHT22;23517;50.390;8.616;2023-03-01T03:27:55;-0.90;45.70
37678;DHT22;23517;50.390;8.616;2023-03-01T03:30:29;-0.90;45.70
37678;DHT22;23517;50.390;8.616;2023-03-01T03:32:58;-0.90;45.80
37678;DHT22;23517;50.390;8.616;2023-03-01T03:35:31;-0.90;45.90
37678;DHT22;23517;50.390;8.616;2023-03-01T03:38:01;-1.00;46.00
37678;DHT22;23517;50.390;8.616;2023-03-01T03:40:39;-1.00;46.00
37678;DHT22;23517;50.390;8.616;2023-03-01T03:43:09;-1.00;46.10
37678;DHT22;23517;50.390;8.616;2023-03-01T03:45:38;-0.90;46.00
37678;DHT22;23517;50.390;8.616;2023-03-01T03:48:07;-1.00;45.80
37678;DHT22;23517;50.390;8.616;2023-03-01T03:50:39;-1.10;46.20
37678;DHT22;23517;50.390;8.616;2023-03-01T03:53:10;-1.00;46.00
37678;DHT22;23517;50.390;8.616;2023-03-01T03:55:38;-1.00;46.00
37678;DHT22;23517;50.390;8.616;2023-03-01T03:58:07;-1.00;45.80
37678;DHT22;23517;50.390;8.616;2023-03-01T04:00:36;-1.00;46.10
37678;DHT22;23517;50.390;8.616;2023-03-01T04:03:08;-1.10;46.20
37678;DHT22;23517;50.390;8.616;2023-03-01T04:05:36;-1.10;46.30
37678;DHT22;23517;50.390;8.616;2023-03-01T04:08:04;-1.10;46.60
37678;DHT22;23517;50.390;8.616;2023-03-01T04:10:38;-1.10;46.60
37678;DHT22;23517;50.390;8.616;2023-03-01T04:13:08;-1.10;46.50
37678;DHT22;23517;50.390;8.616;2023-03-01T04:15:37;-1.20;46.40
37678;DHT22;23517;50.390;8.616;2023-03-01T04:18:04;-1.20;46.40
37678;DHT22;23517;50.390;8.616;2023-03-01T04:20:34;-1.20;46.30
37678;DHT22;23517;50.390;8.616;2023-03-01T04:23:20;-1.20;46.40
37678;DHT22;23517;50.390;8.616;2023-03-01T04:25:57;-1.20;46.60
37678;DHT22;23517;50.390;8.616;2023-03-01T04:28:40;-1.10;46.30
37678;DHT22;23517;50.390;8.616;2023-03-01T04:31:17;-1.20;46.40
37678;DHT22;23517;50.390;8.616;2023-03-01T04:33:55;-1.10;46.60
37678;DHT22;23517;50.390;8.616;2023-03-01T04:36:25;-1.10;46.60
37678;DHT22;23517;50.390;8.616;2023-03-01T04:38:54;-1.10;46.40
37678;DHT22;23517;50.390;8.616;2023-03-01T04:41:23;-1.00;46.30
37678;DHT22;23517;50.390;8.616;2023-03-01T04:43:50;-1.00;45.90
37678;DHT22;23517;50.390;8.616;2023-03-01T04:46:18;-1.10;46.00
37678;DHT22;23517;50.390;8.616;2023-03-01T04:48:46;-1.10;46.30
37678;DHT22;23517;50.390;8.616;2023-03-01T04:51:14;-1.10;46.40
37678;DHT22;23517;50.390;8.616;2023-03-01T04:53:42;-1.10;46.40
37678;DHT22;23517;50.390;8.616;2023-03-01T04:56:11;-1.10;46.40
37678;DHT22;23517;50.390;8.616;2023-03-01T04:58:40;-1.20;46.00
37678;DHT22;23517;50.390;8.616;2023-03-01T05:01:17;-1.10;46.00
37678;DHT22;23517;50.390;8.616;2023-03-01T05:03:49;-1.10;46.20
37678;DHT22;23517;50.390;8.616;2023-03-01T05:06:19;-1.20;46.40
37678;DHT22;23517;50.390;8.616;2023-03-01T05:08:47;-1.10;46.50
37678;DHT22;23517;50.390;8.616;2023-03-01T05:11:16;-1.10;46.20
37678;DHT22;23517;50.390;8.616;2023-03-01T05:13:42;-1.10;46.20
37678;DHT22;23517;50.390;8.616;2023-03-01T05:16:15;-1.20;46.20
37678;DHT22;23517;50.390;8.616;2023-03-01T05:18:43;-1.20;46.20
37678;DHT22;23517;50.390;8.616;2023-03-01T05:21:12;-1.10;46.50
37678;DHT22;23517;50.390;8.616;2023-03-01T05:23:42;-1.10;46.30
37678;DHT22;23517;50.390;8.616;2023-03-01T05:26:09;-1.20;46.10
37678;DHT22;23517;50.390;8.616;2023-03-01T05:28:52;-1.10;46.20
37678;DHT22;23517;50.390;8.616;2023-03-01T05:31:22;-1.20;46.50
37678;DHT22;23517;50.390;8.616;2023-03-01T05:33:51;-1.10;46.40
37678;DHT22;23517;50.390;8.616;2023-03-01T05:36:19;-1.20;46.10
37678;DHT22;23517;50.390;8.616;2023-03-01T05:38:45;-1.20;46.40
37678;DHT22;23517;50.390;8.616;2023-03-01T05:41:15;-1.20;46.70
37678;DHT22;23517;50.390;8.616;2023-03-01T05:43:43;-1.20;46.50
37678;DHT22;23517;50.390;8.616;2023-03-01T05:46:11;-1.20;46.50
37678;DHT22;23517;50.390;8.616;2023-03-01T05:48:39;-1.20;46.60
37678;DHT22;23517;50.390;8.616;2023-03-01T05:51:06;-1.20;46.30
37678;DHT22;23517;50.390;8.616;2023-03-01T05:53:32;-1.10;46.30
37678;DHT22;23517;50.390;8.616;2023-03-01T05:55:59;-1.20;46.30
37678;DHT22;23517;50.390;8.616;2023-03-01T05:58:26;-1.20;46.50
37678;DHT22;23517;50.390;8.616;2023-03-01T06:00:53;-1.20;46.70
37678;DHT22;23517;50.390;8.616;2023-03-01T06:03:22;-1.20;46.80
37678;DHT22;23517;50.390;8.616;2023-03-01T06:05:49;-1.10;46.50
37678;DHT22;23517;50.390;8.616;2023-03-01T06:08:15;-1.00;45.80
37678;DHT22;23517;50.390;8.616;2023-03-01T06:10:42;-1.10;45.90
37678;DHT22;23517;50.390;8.616;2023-03-01T06:13:19;-1.10;46.10
37678;DHT22;23517;50.390;8.616;2023-03-01T06:15:45;-1.10;45.90
37678;DHT22;23517;50.390;8.616;2023-03-01T06:18:12;-1.10;46.00
37678;DHT22;23517;50.390;8.616;2023-03-01T06:20:38;-1.10;46.20
37678;DHT22;23517;50.390;8.616;2023-03-01T06:23:06;-1.10;46.20
37678;DHT22;23517;50.390;8.616;2023-03-01T06:25:35;-1.10;46.30
37678;DHT22;23517;50.390;8.616;2023-03-01T06:28:01;-1.10;46.20
37678;DHT22;23517;50.390;8.616;2023-03-01T06:30:28;-1.10;46.40
37678;DHT22;23517;50.390;8.616;2023-03-01T06:32:56;-1.10;46.30
37678;DHT22;23517;50.390;8.616;2023-03-01T06:35:27;-1.10;46.30
37678;DHT22;23517;50.390;8.616;2023-03-01T06:37:56;-1.10;46.50
37678;DHT22;23517;50.390;8.616;2023-03-01T06:40:23;-1.00;46.50
37678;DHT22;23517;50.390;8.616;2023-03-01T06:42:51;-0.80;46.00
37678;DHT22;23517;50.390;8.616;2023-03-01T06:45:18;-0.80;45.60
37678;DHT22;23517;50.390;8.616;2023-03-01T06:47:45;-0.70;45.70
37678;DHT22;23517;50.390;8.616;2023-03-01T06:50:13;-0.60;45.30
37678;DHT22;23517;50.390;8.616;2023-03-01T06:52:41;-0.30;43.90
37678;DHT22;23517;50.390;8.616;2023-03-01T06:55:11;-0.20;43.40
37678;DHT22;23517;50.390;8.616;2023-03-01T06:57:39;0.00;43.20
37678;DHT22;23517;50.390;8.616;2023-03-01T07:00:07;-0.10;42.30
37678;DHT22;23517;50.390;8.616;2023-03-01T07:02:34;0.00;42.60
37678;DHT22;23517;50.390;8.616;2023-03-01T07:05:03;0.00;42.30
37678;DHT22;23517;50.390;8.616;2023-03-01T07:07:32;0.10;42.70
37678;DHT22;23517;50.390;8.616;2023-03-01T07:09:59;0.10;42.20
37678;DHT22;23517;50.390;8.616;2023-03-01T07:12:26;0.00;42.80
37678;DHT22;23517;50.390;8.616;2023-03-01T07:14:52;0.10;42.60
37678;DHT22;23517;50.390;8.616;2023-03-01T07:17:20;0.20;42.40
37678;DHT22;23517;50.390;8.616;2023-03-01T07:19:46;0.30;42.30
37678;DHT22;23517;50.390;8.616;2023-03-01T07:22:13;0.40;41.40
37678;DHT22;23517;50.390;8.616;2023-03-01T07:24:41;0.40;41.30
37678;DHT22;23517;50.390;8.616;2023-03-01T07:27:08;0.30;41.60
37678;DHT22;23517;50.390;8.616;2023-03-01T07:29:34;0.50;41.40
37678;DHT22;23517;50.390;8.616;2023-03-01T07:32:04;0.50;41.20
37678;DHT22;23517;50.390;8.616;2023-03-01T07:34:31;0.60;40.60
37678;DHT22;23517;50.390;8.616;2023-03-01T07:36:58;0.60;40.60
37678;DHT22;23517;50.390;8.616;2023-03-01T07:39:24;0.70;40.30
37678;DHT22;23517;50.390;8.616;2023-03-01T07:41:56;0.60;40.40
37678;DHT22;23517;50.390;8.616;2023-03-01T07:44:23;0.60;40.80
37678;DHT22;23517;50.390;8.616;2023-03-01T07:46:49;0.70;40.00
37678;DHT22;23517;50.390;8.616;2023-03-01T07:49:18;0.70;40.40
37678;DHT22;23517;50.390;8.616;2023-03-01T07:51:45;0.70;40.60
37678;DHT22;23517;50.390;8.616;2023-03-01T07:54:11;0.80;40.70
37678;DHT22;23517;50.390;8.616;2023-03-01T07:56:48;1.00;40.30
37678;DHT22;23517;50.390;8.616;2023-03-01T07:59:14;1.10;39.60
37678;DHT22;23517;50.390;8.616;2023-03-01T08:01:41;1.30;38.40
37678;DHT22;23517;50.390;8.616;2023-03-01T08:04:13;1.30;38.50
37678;DHT22;23517;50.390;8.616;2023-03-01T08:06:39;1.20;38.80
37678;DHT22;23517;50.390;8.616;2023-03-01T08:09:06;1.20;39.00
37678;DHT22;23517;50.390;8.616;2023-03-01T08:11:34;1.30;38.70
37678;DHT22;23517;50.390;8.616;2023-03-01T08:14:00;1.40;38.00
37678;DHT22;23517;50.390;8.616;2023-03-01T08:16:27;1.60;38.10
37678;DHT22;23517;50.390;8.616;2023-03-01T08:18:54;1.60;38.00
37678;DHT22;23517;50.390;8.616;2023-03-01T08:21:22;1.70;38.00
37678;DHT22;23517;50.390;8.616;2023-03-01T08:23:49;1.80;37.40
37678;DHT22;23517;50.390;8.616;2023-03-01T08:26:18;1.90;37.60
37678;DHT22;23517;50.390;8.616;2023-03-01T08:28:48;2.00;37.10
37678;DHT22;23517;50.390;8.616;2023-03-01T08:31:28;2.10;36.90
37678;DHT22;23517;50.390;8.616;2023-03-01T08:34:05;2.20;36.90
37678;DHT22;23517;50.390;8.616;2023-03-01T08:36:39;2.60;36.40
37678;DHT22;23517;50.390;8.616;2023-03-01T08:39:08;4.10;33.60
37678;DHT22;23517;50.390;8.616;2023-03-01T08:41:37;5.60;28.50
37678;DHT22;23517;50.390;8.616;2023-03-01T08:44:04;7.50;25.70
37678;DHT22;23517;50.390;8.616;2023-03-01T08:46:34;8.40;21.20
37678;DHT22;23517;50.390;8.616;2023-03-01T08:49:12;8.50;19.50
37678;DHT22;23517;50.390;8.616;2023-03-01T08:51:43;9.70;19.70
37678;DHT22;23517;50.390;8.616;2023-03-01T08:54:17;11.20;17.20
37678;DHT22;23517;50.390;8.616;2023-03-01T08:56:45;11.30;15.70
37678;DHT22;23517;50.390;8.616;2023-03-01T08:59:13;12.30;14.30
37678;DHT22;23517;50.390;8.616;2023-03-01T09:01:41;12.30;14.20
37678;DHT22;23517;50.390;8.616;2023-03-01T09:04:11;13.10;13.50
37678;DHT22;23517;50.390;8.616;2023-03-01T09:06:39;13.80;12.70
37678;DHT22;23517;50.390;8.616;2023-03-01T09:09:07;13.90;12.20
37678;DHT22;23517;50.390;8.616;2023-03-01T09:11:41;13.90;12.50
37678;DHT22;23517;50.390;8.616;2023-03-01T09:14:10;14.00;10.90
37678;DHT22;23517;50.390;8.616;2023-03-01T09:16:37;13.60;11.80
37678;DHT22;23517;50.390;8.616;2023-03-01T09:19:04;12.30;12.80
37678;DHT22;23517;50.390;8.616;2023-03-01T09:21:31;10.60;14.80
37678;DHT22;23517;50.390;8.616;2023-03-01T09:24:12;9.20;17.20
37678;DHT22;23517;50.390;8.616;2023-03-01T09:26:39;8.20;18.30
37678;DHT22;23517;50.390;8.616;2023-03-01T09:29:06;6.70;20.00
37678;DHT22;23517;50.390;8.616;2023-03-01T09:31:33;6.00;22.90
37678;DHT22;23517;50.390;8.616;2023-03-01T09:33:59;5.60;23.60
37678;DHT22;23517;50.390;8.616;2023-03-01T09:36:26;5.20;25.00
37678;DHT22;23517;50.390;8.616;2023-03-01T09:38:53;4.60;26.20
37678;DHT22;23517;50.390;8.616;2023-03-01T09:44:38;4.30;27.90
37678;DHT22;23517;50.390;8.616;2023-03-01T09:47:23;4.20;28.90
37678;DHT22;23517;50.390;8.616;2023-03-01T09:55:31;4.00;28.60
37678;DHT22;23517;50.390;8.616;2023-03-01T10:01:34;4.10;28.60
37678;DHT22;23517;50.390;8.616;2023-03-01T10:04:28;4.10;28.90
37678;DHT22;23517;50.390;8.616;2023-03-01T10:07:17;4.10;28.50
37678;DHT22;23517;50.390;8.616;2023-03-01T10:09:50;4.10;29.20
37678;DHT22;23517;50.390;8.616;2023-03-01T10:12:19;4.20;29.40
37678;DHT22;23517;50.390;8.616;2023-03-01T10:15:19;4.30;28.50
37678;DHT22;23517;50.390;8.616;2023-03-01T10:18:00;4.30;28.70
37678;DHT22;23517;50.390;8.616;2023-03-01T10:20:53;4.30;28.60
37678;DHT22;23517;50.390;8.616;2023-03-01T10:23:30;4.20;28.20
37678;DHT22;23517;50.390;8.616;2023-03-01T10:29:03;4.30;29.20
37678;DHT22;23517;50.390;8.616;2023-03-01T10:31:49;4.30;28.20
37678;DHT22;23517;50.390;8.616;2023-03-01T10:34:29;4.50;28.10
37678;DHT22;23517;50.390;8.616;2023-03-01T10:37:08;4.40;27.90
37678;DHT22;23517;50.390;8.616;2023-03-01T10:39:54;4.40;28.30
37678;DHT22;23517;50.390;8.616;2023-03-01T10:42:40;4.50;28.00
37678;DHT22;23517;50.390;8.616;2023-03-01T10:48:22;4.60;28.40
37678;DHT22;23517;50.390;8.616;2023-03-01T10:53:29;4.50;28.00
37678;DHT22;23517;50.390;8.616;2023-03-01T10:56:15;4.60;27.70
37678;DHT22;23517;50.390;8.616;2023-03-01T10:58:57;4.70;27.50
37678;DHT22;23517;50.390;8.616;2023-03-01T11:01:28;4.80;27.20
37678;DHT22;23517;50.390;8.616;2023-03-01T11:06:33;5.00;26.60
37678;DHT22;23517;50.390;8.616;2023-03-01T11:09:18;5.00;26.90
37678;DHT22;23517;50.390;8.616;2023-03-01T11:11:58;5.10;26.60
37678;DHT22;23517;50.390;8.616;2023-03-01T11:14:35;5.10;26.40
37678;DHT22;23517;50.390;8.616;2023-03-01T11:17:23;5.20;26.40
37678;DHT22;23517;50.390;8.616;2023-03-01T11:22:52;5.10;26.70
37678;DHT22;23517;50.390;8.616;2023-03-01T11:25:28;5.10;26.20
37678;DHT22;23517;50.390;8.616;2023-03-01T11:28:01;5.20;26.50
37678;DHT22;23517;50.390;8.616;2023-03-01T11:30:39;5.00;25.50
37678;DHT22;23517;50.390;8.616;2023-03-01T11:33:38;5.10;25.70
37678;DHT22;23517;50.390;8.616;2023-03-01T11:36:35;5.10;25.40
37678;DHT22;23517;50.390;8.616;2023-03-01T11:39:25;5.30;25.50
37678;DHT22;23517;50.390;8.616;2023-03-01T11:42:06;5.40;25.60
37678;DHT22;23517;50.390;8.616;2023-03-01T11:44:47;5.50;24.90
37678;DHT22;23517;50.390;8.616;2023-03-01T11:50:15;5.50;25.80
37678;DHT22;23517;50.390;8.616;2023-03-01T11:56:26;5.80;23.70
37678;DHT22;23517;50.390;8.616;2023-03-01T11:59:19;5.80;23.50
37678;DHT22;23517;50.390;8.616;2023-03-01T12:05:40;5.80;23.30
37678;DHT22;23517;50.390;8.616;2023-03-01T12:08:26;6.00;22.60
37678;DHT22;23517;50.390;8.616;2023-03-01T12:20:02;6.00;23.20
37678;DHT22;23517;50.390;8.616;2023-03-01T12:29:20;6.20;22.40
37678;DHT22;23517;50.390;8.616;2023-03-01T12:37:59;6.30;22.60
37678;DHT22;23517;50.390;8.616;2023-03-01T12:41:21;6.30;22.50
37678;DHT22;23517;50.390;8.616;2023-03-01T12:47:18;6.40;22.00
37678;DHT22;23517;50.390;8.616;2023-03-01T12:49:54;6.40;22.60
37678;DHT22;23517;50.390;8.616;2023-03-01T12:52:37;6.40;22.30
37678;DHT22;23517;50.390;8.616;2023-03-01T12:58:26;6.50;22.90
37678;DHT22;23517;50.390;8.616;2023-03-01T13:01:38;6.60;22.00
37678;DHT22;23517;50.390;8.616;2023-03-01T13:10:29;6.60;21.70
37678;DHT22;23517;50.390;8.616;2023-03-01T13:13:12;6.60;21.10
37678;DHT22;23517;50.390;8.616;2023-03-01T13:15:50;6.70;21.20
37678;DHT22;23517;50.390;8.616;2023-03-01T13:20:53;6.80;21.00
37678;DHT22;23517;50.390;8.616;2023-03-01T13:26:04;6.70;20.50
37678;DHT22;23517;50.390;8.616;2023-03-01T13:31:06;6.80;20.40
37678;DHT22;23517;50.390;8.616;2023-03-01T13:33:47;6.70;20.70
37678;DHT22;23517;50.390;8.616;2023-03-01T13:38:57;6.70;20.30
37678;DHT22;23517;50.390;8.616;2023-03-01T13:49:50;6.70;19.90
37678;DHT22;23517;50.390;8.616;2023-03-01T13:52:43;6.70;21.30
37678;DHT22;23517;50.390;8.616;2023-03-01T13:55:16;6.80;21.80
37678;DHT22;23517;50.390;8.616;2023-03-01T13:57:56;7.00;22.00
37678;DHT22;23517;50.390;8.616;2023-03-01T14:00:36;7.00;20.00
37678;DHT22;23517;50.390;8.616;2023-03-01T14:03:16;6.90;21.00
37678;DHT22;23517;50.390;8.616;2023-03-01T14:06:05;6.90;20.50
37678;DHT22;23517;50.390;8.616;2023-03-01T14:08:43;6.90;20.70
37678;DHT22;23517;50.390;8.616;2023-03-01T14:11:40;6.90;21.40
37678;DHT22;23517;50.390;8.616;2023-03-01T14:14:52;7.00;20.80
37678;DHT22;23517;50.390;8.616;2023-03-01T14:17:42;7.00;20.20
37678;DHT22;23517;50.390;8.616;2023-03-01T14:20:27;7.00;20.80
37678;DHT22;23517;50.390;8.616;2023-03-01T14:23:00;6.90;21.70
37678;DHT22;23517;50.390;8.616;2023-03-01T14:25:31;6.90;22.00
37678;DHT22;23517;50.390;8.616;2023-03-01T14:28:13;6.80;21.60
37678;DHT22;23517;50.390;8.616;2023-03-01T14:30:48;6.80;21.90
37678;DHT22;23517;50.390;8.616;2023-03-01T14:33:23;6.90;22.50
37678;DHT22;23517;50.390;8.616;2023-03-01T14:35:58;6.90;22.00
37678;DHT22;23517;50.390;8.616;2023-03-01T14:41:20;6.80;22.50
37678;DHT22;23517;50.390;8.616;2023-03-01T14:43:58;6.80;22.50
37678;DHT22;23517;50.390;8.616;2023-03-01T14:46:36;6.70;23.00
37678;DHT22;23517;50.390;8.616;2023-03-01T14:49:14;6.70;22.40
37678;DHT22;23517;50.390;8.616;2023-03-01T14:51:50;6.70;23.30
37678;DHT22;23517;50.390;8.616;2023-03-01T14:54:38;6.70;22.60
37678;DHT22;23517;50.390;8.616;2023-03-01T14:57:18;6.70;22.90
37678;DHT22;23517;50.390;8.616;2023-03-01T14:59:57;6.60;23.10
37678;DHT22;23517;50.390;8.616;2023-03-01T15:02:27;6.60;22.60
37678;DHT22;23517;50.390;8.616;2023-03-01T15:04:57;6.50;22.70
37678;DHT22;23517;50.390;8.616;2023-03-01T15:07:31;6.50;23.10
37678;DHT22;23517;50.390;8.616;2023-03-01T15:10:11;6.60;23.00
37678;DHT22;23517;50.390;8.616;2023-03-01T15:12:43;6.50;22.70
37678;DHT22;23517;50.390;8.616;2023-03-01T15:15:33;6.50;23.20
37678;DHT22;23517;50.390;8.616;2023-03-01T15:18:06;6.50;23.80
37678;DHT22;23517;50.390;8.616;2023-03-01T15:20:40;6.40;22.70
37678;DHT22;23517;50.390;8.616;2023-03-01T15:23:26;6.30;22.90
37678;DHT22;23517;50.390;8.616;2023-03-01T15:25:55;6.30;22.10
37678;DHT22;23517;50.390;8.616;2023-03-01T15:28:28;6.30;22.30
37678;DHT22;23517;50.390;8.616;2023-03-01T15:31:23;6.20;22.10
37678;DHT22;23517;50.390;8.616;2023-03-01T15:33:52;6.20;22.20
37678;DHT22;23517;50.390;8.616;2023-03-01T15:36:48;6.20;22.30
37678;DHT22;23517;50.390;8.616;2023-03-01T15:42:13;6.10;22.20
37678;DHT22;23517;50.390;8.616;2023-03-01T15:45:20;6.10;22.30
37678;DHT22;23517;50.390;8.616;2023-03-01T15:47:51;6.00;22.50
37678;DHT22;23517;50.390;8.616;2023-03-01T15:50:29;6.00;22.20
37678;DHT22;23517;50.390;8.616;2023-03-01T15:53:08;5.90;21.90
37678;DHT22;23517;50.390;8.616;2023-03-01T15:55:37;5.90;22.20
37678;DHT22;23517;50.390;8.616;2023-03-01T15:58:13;5.80;21.60
37678;DHT22;23517;50.390;8.616;2023-03-01T16:00:46;5.80;22.00
37678;DHT22;23517;50.390;8.616;2023-03-01T16:03:26;5.80;22.00
37678;DHT22;23517;50.390;8.616;2023-03-01T16:05:53;5.70;22.10
37678;DHT22;23517;50.390;8.616;2023-03-01T16:08:20;5.60;22.10
37678;DHT22;23517;50.390;8.616;2023-03-01T16:10:46;5.50;22.50
37678;DHT22;23517;50.390;8.616;2023-03-01T16:13:16;5.50;22.90
37678;DHT22;23517;50.390;8.616;2023-03-01T16:15:43;5.40;23.30
37678;DHT22;23517;50.390;8.616;2023-03-01T16:18:10;5.40;23.30
37678;DHT22;23517;50.390;8.616;2023-03-01T16:20:43;5.30;22.90
37678;DHT22;23517;50.390;8.616;2023-03-01T16:23:11;5.30;23.30
37678;DHT22;23517;50.390;8.616;2023-03-01T16:25:38;5.20;23.30
37678;DHT22;23517;50.390;8.616;2023-03-01T16:28:05;5.20;22.50
37678;DHT22;23517;50.390;8.616;2023-03-01T16:30:38;5.20;22.10
37678;DHT22;23517;50.390;8.616;2023-03-01T16:33:05;5.20;22.10
37678;DHT22;23517;50.390;8.616;2023-03-01T16:35:50;5.10;22.70
37678;DHT22;23517;50.390;8.616;2023-03-01T16:38:17;5.10;22.00
37678;DHT22;23517;50.390;8.616;2023-03-01T16:40:48;5.10;21.10
37678;DHT22;23517;50.390;8.616;2023-03-01T16:43:16;5.10;21.70
37678;DHT22;23517;50.390;8.616;2023-03-01T16:45:42;5.00;22.60
37678;DHT22;23517;50.390;8.616;2023-03-01T16:48:11;5.00;22.50
37678;DHT22;23517;50.390;8.616;2023-03-01T16:50:39;4.90;22.50
37678;DHT22;23517;50.390;8.616;2023-03-01T16:53:05;4.90;23.20
37678;DHT22;23517;50.390;8.616;2023-03-01T16:55:32;4.80;22.50
37678;DHT22;23517;50.390;8.616;2023-03-01T16:58:00;4.80;23.50
37678;DHT22;23517;50.390;8.616;2023-03-01T17:00:28;4.70;22.50
37678;DHT22;23517;50.390;8.616;2023-03-01T17:02:55;4.70;22.20
37678;DHT22;23517;50.390;8.616;2023-03-01T17:05:22;4.60;23.10
37678;DHT22;23517;50.390;8.616;2023-03-01T17:07:50;4.60;23.00
37678;DHT22;23517;50.390;8.616;2023-03-01T17:10:17;4.50;23.20
37678;DHT22;23517;50.390;8.616;2023-03-01T17:12:48;4.50;23.00
37678;DHT22;23517;50.390;8.616;2023-03-01T17:15:15;4.50;23.80
37678;DHT22;23517;50.390;8.616;2023-03-01T17:17:42;4.40;23.10
37678;DHT22;23517;50.390;8.616;2023-03-01T17:20:09;4.40;22.90
37678;DHT22;23517;50.390;8.616;2023-03-01T17:22:39;4.30;23.30
37678;DHT22;23517;50.390;8.616;2023-03-01T17:25:09;4.20;23.90
37678;DHT22;23517;50.390;8.616;2023-03-01T17:27:37;4.20;23.50
37678;DHT22;23517;50.390;8.616;2023-03-01T17:30:08;4.20;23.30
37678;DHT22;23517;50.390;8.616;2023-03-01T17:32:35;4.10;23.40
37678;DHT22;23517;50.390;8.616;2023-03-01T17:35:02;4.00;24.20
37678;DHT22;23517;50.390;8.616;2023-03-01T17:37:29;4.00;23.90
37678;DHT22;23517;50.390;8.616;2023-03-01T17:39:57;3.90;24.10
37678;DHT22;23517;50.390;8.616;2023-03-01T17:42:24;3.90;24.50
37678;DHT22;23517;50.390;8.616;2023-03-01T17:44:50;3.80;24.40
37678;DHT22;23517;50.390;8.616;2023-03-01T17:47:17;3.70;24.50
37678;DHT22;23517;50.390;8.616;2023-03-01T17:49:44;3.70;24.40